createdAt,value
2018-05-15T00:02:13.035Z,21.10
2018-05-15T00:04:41.299Z,21.10
2018-05-15T00:07:09.407Z,21.10
2018-05-15T00:09:37.532Z,21.00
2018-05-15T00:12:06.435Z,20.90
2018-05-15T00:14:34.653Z,20.90
2018-05-15T00:17:02.777Z,20.90
2018-05-15T00:19:30.885Z,20.80
2018-05-15T00:21:59.003Z,20.80
2018-05-15T00:24:27.123Z,20.70
2018-05-15T00:26:55.996Z,20.60
2018-05-15T00:29:24.188Z,20.60
2018-05-15T00:31:52.207Z,20.60
2018-05-15T00:34:20.346Z,20.60
2018-05-15T00:36:49.223Z,20.50
2018-05-15T00:39:17.344Z,20.40
2018-05-15T00:41:45.443Z,20.40
2018-05-15T00:44:13.572Z,20.40
2018-05-15T00:46:41.727Z,20.30
2018-05-15T00:49:09.836Z,20.30
2018-05-15T00:51:37.953Z,20.20
2018-05-15T00:54:06.085Z,20.20
2018-05-15T00:56:34.971Z,20.10
2018-05-15T00:59:03.892Z,20.10
2018-05-15T01:01:32.020Z,20.10
2018-05-15T01:04:00.150Z,20.00
2018-05-15T01:06:28.266Z,20.00
2018-05-15T01:08:56.369Z,19.90
2018-05-15T01:11:25.247Z,19.90
2018-05-15T01:13:53.410Z,19.90
2018-05-15T01:16:21.515Z,19.80
2018-05-15T01:18:50.401Z,19.70
2018-05-15T01:21:18.503Z,19.70
2018-05-15T01:23:46.704Z,19.70
2018-05-15T01:26:14.808Z,19.70
2018-05-15T01:28:42.898Z,19.60
2018-05-15T01:31:11.038Z,19.60
2018-05-15T01:33:39.120Z,19.50
2018-05-15T01:36:07.234Z,19.50
2018-05-15T01:38:35.345Z,19.50
2018-05-15T01:41:03.441Z,19.40
2018-05-15T01:43:31.557Z,19.40
2018-05-15T01:45:59.672Z,19.30
2018-05-15T01:48:27.785Z,19.30
2018-05-15T01:50:56.339Z,19.30
2018-05-15T01:53:24.463Z,19.20
2018-05-15T01:55:52.598Z,19.20
2018-05-15T01:58:21.451Z,19.10
2018-05-15T02:00:49.565Z,19.10
2018-05-15T02:03:17.673Z,19.00
2018-05-15T02:05:45.794Z,19.00
2018-05-15T02:08:13.899Z,19.00
2018-05-15T02:10:42.343Z,18.90
2018-05-15T02:13:10.430Z,18.90
2018-05-15T02:15:38.528Z,18.90
2018-05-15T02:18:06.635Z,18.80
2018-05-15T02:20:34.729Z,18.70
2018-05-15T02:23:02.865Z,18.70
2018-05-15T02:25:30.984Z,18.70
2018-05-15T02:27:59.103Z,18.60
2018-05-15T02:30:28.095Z,18.60
2018-05-15T02:32:56.885Z,18.50
2018-05-15T02:35:24.970Z,18.60
2018-05-15T02:37:53.828Z,18.50
2018-05-15T02:40:21.967Z,18.50
2018-05-15T02:42:50.079Z,18.50
2018-05-15T02:45:18.179Z,18.50
2018-05-15T02:47:46.297Z,18.40
2018-05-15T02:50:14.428Z,18.40
2018-05-15T02:52:42.590Z,18.30
2018-05-15T02:55:10.690Z,18.30
2018-05-15T02:57:38.784Z,18.30
2018-05-15T03:00:07.671Z,18.20
2018-05-15T03:02:36.561Z,18.20
2018-05-15T03:05:05.725Z,18.20
2018-05-15T03:07:33.863Z,18.10
2018-05-15T03:10:02.037Z,18.10
2018-05-15T03:12:30.141Z,18.10
2018-05-15T03:14:58.264Z,18.10
2018-05-15T03:17:27.170Z,18.10
2018-05-15T03:19:56.033Z,18.00
2018-05-15T03:22:24.161Z,18.00
2018-05-15T03:24:52.270Z,18.00
2018-05-15T03:27:20.450Z,18.00
2018-05-15T03:29:48.528Z,17.90
2018-05-15T03:32:16.648Z,17.90
2018-05-15T03:34:44.749Z,17.90
2018-05-15T03:37:12.862Z,17.80
2018-05-15T03:39:40.961Z,17.80
2018-05-15T03:42:09.059Z,17.80
2018-05-15T03:44:37.166Z,17.80
2018-05-15T03:47:05.296Z,17.80
2018-05-15T03:49:33.443Z,17.80
2018-05-15T03:52:01.561Z,17.80
2018-05-15T03:54:29.667Z,17.80
2018-05-15T03:56:57.769Z,17.80
2018-05-15T03:59:26.659Z,17.80
2018-05-15T04:02:07.650Z,17.70
2018-05-15T04:04:47.674Z,17.70
2018-05-15T04:07:27.460Z,17.70
2018-05-15T04:09:55.679Z,17.70
2018-05-15T04:12:23.910Z,17.60
2018-05-15T04:14:52.032Z,17.60
2018-05-15T04:17:20.142Z,17.60
2018-05-15T04:19:48.241Z,17.50
2018-05-15T04:22:16.362Z,17.50
2018-05-15T04:24:44.474Z,17.50
2018-05-15T04:27:12.708Z,17.50
2018-05-15T04:29:40.832Z,17.50
2018-05-15T04:32:08.987Z,17.50
2018-05-15T04:34:37.231Z,17.50
2018-05-15T04:37:05.316Z,17.50
2018-05-15T04:39:33.413Z,17.50
2018-05-15T04:42:01.536Z,17.60
2018-05-15T04:44:29.726Z,17.70
2018-05-15T04:46:57.807Z,17.80
2018-05-15T04:49:26.078Z,18.00
2018-05-15T04:51:54.173Z,18.10
2018-05-15T04:54:22.344Z,18.30
2018-05-15T04:56:51.258Z,18.70
2018-05-15T04:59:20.111Z,18.90
2018-05-15T05:01:48.245Z,18.90
2018-05-15T05:04:16.344Z,19.10
2018-05-15T05:06:44.531Z,19.30
2018-05-15T05:09:13.320Z,19.70
2018-05-15T05:11:41.551Z,19.60
2018-05-15T05:14:09.583Z,19.90
2018-05-15T05:16:37.736Z,20.10
2018-05-15T05:19:05.864Z,20.30
2018-05-15T05:21:34.748Z,20.70
2018-05-15T05:24:02.856Z,20.70
2018-05-15T05:26:30.978Z,20.90
2018-05-15T05:28:59.071Z,21.10
2018-05-15T05:31:27.175Z,21.30
2018-05-15T05:33:56.076Z,21.70
2018-05-15T05:36:24.184Z,21.70
2018-05-15T05:38:52.300Z,22.00
2018-05-15T05:41:21.685Z,22.20
2018-05-15T05:43:49.824Z,22.40
2018-05-15T05:46:17.956Z,22.60
2018-05-15T05:48:46.070Z,22.80
2018-05-15T05:51:14.169Z,23.10
2018-05-15T05:53:42.333Z,23.30
2018-05-15T05:56:10.950Z,23.50
2018-05-15T05:58:39.045Z,23.70
2018-05-15T06:01:07.178Z,24.00
2018-05-15T06:03:35.335Z,24.20
2018-05-15T06:06:03.459Z,24.40
2018-05-15T06:08:31.582Z,24.60
2018-05-15T06:11:00.477Z,25.10
2018-05-15T06:13:29.352Z,25.30
2018-05-15T06:15:57.640Z,25.20
2018-05-15T06:18:25.820Z,25.50
2018-05-15T06:20:53.974Z,25.70
2018-05-15T06:23:22.036Z,25.90
2018-05-15T06:25:50.148Z,26.10
2018-05-15T06:28:18.241Z,26.20
2018-05-15T06:30:47.123Z,26.60
2018-05-15T06:33:15.229Z,26.50
2018-05-15T06:35:43.397Z,26.70
2018-05-15T06:38:11.615Z,26.80
2018-05-15T06:40:39.715Z,27.00
2018-05-15T06:43:07.899Z,27.10
2018-05-15T06:45:36.009Z,27.20
2018-05-15T06:48:04.912Z,27.40
2018-05-15T06:50:33.003Z,27.40
2018-05-15T06:53:01.131Z,27.50
2018-05-15T06:55:29.232Z,27.60
2018-05-15T06:57:57.333Z,27.70
2018-05-15T07:00:25.433Z,27.80
2018-05-15T07:02:53.531Z,27.90
2018-05-15T07:05:21.636Z,28.10
2018-05-15T07:07:50.616Z,28.30
2018-05-15T07:10:18.653Z,28.30
2018-05-15T07:12:47.588Z,28.60
2018-05-15T07:15:15.724Z,28.50
2018-05-15T07:17:43.832Z,28.70
2018-05-15T07:20:11.938Z,28.80
2018-05-15T07:22:40.059Z,28.90
2018-05-15T07:25:08.173Z,29.00
2018-05-15T07:27:37.089Z,29.30
2018-05-15T07:30:05.183Z,29.30
2018-05-15T07:32:33.289Z,29.40
2018-05-15T07:35:01.412Z,29.50
2018-05-15T07:37:30.259Z,29.70
2018-05-15T07:40:00.284Z,29.70
2018-05-15T07:42:28.398Z,29.80
2018-05-15T07:44:57.267Z,30.10
2018-05-15T07:47:25.371Z,30.10
2018-05-15T07:49:54.263Z,30.30
2018-05-15T07:52:23.111Z,30.40
2018-05-15T07:54:51.243Z,30.40
2018-05-15T07:57:20.120Z,30.70
2018-05-15T07:59:48.245Z,30.60
2018-05-15T08:02:16.335Z,30.80
2018-05-15T08:04:44.433Z,30.90
2018-05-15T08:07:12.842Z,31.00
2018-05-15T08:09:41.704Z,31.30
2018-05-15T08:12:09.815Z,31.30
2018-05-15T08:14:37.938Z,31.40
2018-05-15T08:17:06.038Z,31.50
2018-05-15T08:19:34.145Z,31.70
2018-05-15T08:22:02.244Z,31.80
2018-05-15T08:24:30.358Z,31.90
2018-05-15T08:26:58.560Z,32.00
2018-05-15T08:29:26.679Z,32.10
2018-05-15T08:31:54.788Z,32.20
2018-05-15T08:34:22.881Z,32.30
2018-05-15T08:36:51.107Z,32.40
2018-05-15T08:39:19.219Z,32.50
2018-05-15T08:41:47.322Z,32.60
2018-05-15T08:44:15.490Z,32.70
2018-05-15T08:46:43.581Z,32.80
2018-05-15T08:49:12.465Z,33.00
2018-05-15T08:51:40.581Z,33.00
2018-05-15T08:54:08.689Z,33.20
2018-05-15T08:56:36.820Z,33.30
2018-05-15T08:59:05.707Z,33.50
2018-05-15T09:01:34.608Z,33.60
2018-05-15T09:04:02.713Z,33.50
2018-05-15T09:06:30.828Z,33.60
2018-05-15T09:08:58.944Z,33.70
2018-05-15T09:11:27.060Z,33.80
2018-05-15T09:13:55.195Z,33.90
2018-05-15T09:16:24.056Z,34.10
2018-05-15T09:18:52.960Z,34.10
2018-05-15T09:21:21.060Z,34.10
2018-05-15T09:23:52.143Z,34.20
2018-05-15T09:26:20.232Z,34.20
2018-05-15T09:28:48.375Z,34.30
2018-05-15T09:31:16.518Z,34.30
2018-05-15T09:33:44.621Z,34.30
2018-05-15T09:36:12.726Z,34.30
2018-05-15T09:38:40.892Z,34.30
2018-05-15T09:41:09.006Z,34.40
2018-05-15T09:46:37.266Z,34.50
2018-05-15T09:49:05.385Z,34.60
2018-05-15T09:51:33.499Z,34.70
2018-05-15T09:54:01.611Z,34.80
2018-05-15T09:56:29.745Z,34.90
2018-05-15T09:58:57.857Z,34.90
2018-05-15T10:01:25.971Z,35.00
2018-05-15T10:03:54.078Z,35.00
2018-05-15T10:06:22.176Z,35.10
2018-05-15T10:08:50.369Z,35.20
2018-05-15T10:11:18.538Z,35.30
2018-05-15T10:13:47.389Z,35.40
2018-05-15T10:16:16.260Z,35.40
2018-05-15T10:18:44.376Z,35.40
2018-05-15T10:21:12.488Z,35.50
2018-05-15T10:23:40.613Z,35.60
2018-05-15T10:26:09.499Z,35.80
2018-05-15T10:28:37.677Z,35.80
2018-05-15T10:31:05.772Z,35.80
2018-05-15T10:33:33.885Z,35.90
2018-05-15T10:36:02.040Z,35.90
2018-05-15T10:38:31.021Z,36.00
2018-05-15T10:40:59.121Z,35.90
2018-05-15T10:43:27.309Z,36.10
2018-05-15T10:45:55.425Z,36.10
2018-05-15T10:48:23.580Z,36.20
2018-05-15T10:50:51.829Z,36.20
2018-05-15T10:53:20.571Z,36.30
2018-05-15T10:55:48.693Z,36.30
2018-05-15T10:58:16.821Z,36.30
2018-05-15T11:00:44.944Z,36.40
2018-05-15T11:03:13.037Z,36.40
2018-05-15T11:05:41.238Z,36.50
2018-05-15T11:08:09.822Z,36.50
2018-05-15T11:10:38.024Z,36.50
2018-05-15T11:13:07.013Z,36.50
2018-05-15T11:15:35.115Z,36.50
2018-05-15T11:18:15.146Z,36.40
2018-05-15T11:20:54.985Z,36.30
2018-05-15T11:23:34.856Z,36.30
2018-05-15T11:26:02.957Z,36.30
2018-05-15T11:28:31.108Z,36.40
2018-05-15T11:30:59.977Z,36.30
2018-05-15T11:33:28.107Z,36.30
2018-05-15T11:35:56.235Z,36.30
2018-05-15T11:38:24.321Z,36.20
2018-05-15T11:40:53.222Z,36.10
2018-05-15T11:43:21.554Z,36.10
2018-05-15T11:45:49.677Z,36.10
2018-05-15T11:48:18.857Z,36.00
2018-05-15T11:50:47.290Z,36.00
2018-05-15T11:53:16.082Z,35.70
2018-05-15T11:55:43.646Z,35.70
2018-05-15T11:58:11.838Z,35.60
2018-05-15T12:00:39.907Z,35.50
2018-05-15T12:03:07.987Z,35.40
2018-05-15T12:05:36.138Z,35.40
2018-05-15T12:08:05.052Z,35.40
2018-05-15T12:10:33.901Z,35.40
2018-05-15T12:13:02.027Z,35.40
2018-05-15T12:15:30.142Z,35.50
2018-05-15T12:17:58.283Z,35.60
2018-05-15T12:20:26.392Z,35.60
2018-05-15T12:22:54.720Z,35.70
2018-05-15T12:25:23.511Z,35.80
2018-05-15T12:27:51.776Z,35.90
2018-05-15T12:30:20.663Z,36.10
2018-05-15T12:32:48.764Z,36.10
2018-05-15T12:35:16.893Z,36.30
2018-05-15T12:37:45.021Z,36.40
2018-05-15T12:40:13.142Z,36.50
2018-05-15T12:42:41.259Z,36.60
2018-05-15T12:45:09.390Z,36.70
2018-05-15T12:47:37.527Z,36.80
2018-05-15T12:50:05.651Z,36.90
2018-05-15T12:52:33.757Z,37.00
2018-05-15T12:55:01.880Z,37.10
2018-05-15T12:57:30.047Z,37.10
2018-05-15T12:59:58.166Z,37.20
2018-05-15T13:02:26.288Z,37.20
2018-05-15T13:04:54.411Z,37.30
2018-05-15T13:07:22.539Z,37.30
2018-05-15T13:09:51.432Z,37.10
2018-05-15T13:12:20.310Z,37.20
2018-05-15T13:14:48.431Z,37.10
2018-05-15T13:17:16.557Z,37.10
2018-05-15T13:19:44.670Z,37.10
2018-05-15T13:22:13.758Z,37.10
2018-05-15T13:24:42.830Z,37.10
2018-05-15T13:27:10.989Z,37.10
2018-05-15T13:29:39.194Z,37.20
2018-05-15T13:32:07.296Z,37.20
2018-05-15T13:34:36.189Z,37.30
2018-05-15T13:37:05.077Z,37.40
2018-05-15T13:39:33.169Z,37.30
2018-05-15T13:42:01.280Z,37.40
2018-05-15T13:44:29.397Z,37.30
2018-05-15T13:46:57.537Z,37.30
2018-05-15T13:49:25.623Z,37.30
2018-05-15T13:51:53.711Z,37.30
2018-05-15T13:54:21.824Z,37.20
2018-05-15T13:56:49.923Z,37.20
2018-05-15T13:59:18.074Z,37.10
2018-05-15T14:01:46.935Z,37.00
2018-05-15T14:04:15.036Z,36.90
2018-05-15T14:06:43.293Z,36.90
2018-05-15T14:09:11.349Z,36.90
2018-05-15T14:11:39.464Z,36.90
2018-05-15T14:14:08.375Z,37.00
2018-05-15T14:16:37.224Z,37.00
2018-05-15T14:19:05.457Z,36.90
2018-05-15T14:21:33.565Z,37.00
2018-05-15T14:24:01.721Z,36.90
2018-05-15T14:26:29.840Z,36.90
2018-05-15T14:28:57.969Z,36.90
2018-05-15T14:31:26.132Z,36.80
2018-05-15T14:33:54.233Z,36.80
2018-05-15T14:36:22.346Z,36.80
2018-05-15T14:38:50.462Z,36.80
2018-05-15T14:41:18.592Z,36.80
2018-05-15T14:43:46.770Z,36.80
2018-05-15T14:46:14.860Z,36.80
2018-05-15T14:48:42.983Z,36.80
2018-05-15T14:51:28.560Z,36.80
2018-05-15T14:53:57.390Z,36.70
2018-05-15T14:56:25.520Z,36.70
2018-05-15T14:58:55.037Z,36.60
2018-05-15T15:01:23.287Z,36.60
2018-05-15T15:03:51.390Z,36.50
2018-05-15T15:06:19.512Z,36.50
2018-05-15T15:08:47.796Z,36.50
2018-05-15T15:11:15.909Z,36.50
2018-05-15T15:13:44.785Z,36.40
2018-05-15T15:16:12.915Z,36.40
2018-05-15T15:18:41.013Z,36.40
2018-05-15T15:21:09.128Z,36.40
2018-05-15T15:23:38.010Z,36.40
2018-05-15T15:26:06.155Z,36.40
2018-05-15T15:28:34.249Z,36.40
2018-05-15T15:31:02.360Z,36.40
2018-05-15T15:33:31.250Z,36.30
2018-05-15T15:35:59.351Z,36.30
2018-05-15T15:38:27.469Z,36.30
2018-05-15T15:40:55.564Z,36.30
2018-05-15T15:43:23.702Z,36.30
2018-05-15T15:45:51.814Z,36.30
2018-05-15T15:48:19.921Z,36.30
2018-05-15T15:50:48.047Z,36.20
2018-05-15T15:53:16.136Z,36.20
2018-05-15T15:55:44.328Z,36.20
2018-05-15T15:58:12.438Z,36.20
2018-05-15T16:00:40.546Z,36.10
2018-05-15T16:03:08.645Z,36.10
2018-05-15T16:05:36.747Z,36.10
2018-05-15T16:08:05.641Z,35.90
2018-05-15T16:10:33.792Z,35.90
2018-05-15T16:13:01.995Z,35.90
2018-05-15T16:15:30.915Z,35.80
2018-05-15T16:17:58.989Z,35.80
2018-05-15T16:20:27.093Z,35.80
2018-05-15T16:22:55.988Z,35.60
2018-05-15T16:25:24.090Z,35.60
2018-05-15T16:27:52.204Z,35.60
2018-05-15T16:30:20.310Z,35.50
2018-05-15T16:32:48.430Z,35.50
2018-05-15T16:35:16.545Z,35.40
2018-05-15T16:37:44.641Z,35.40
2018-05-15T16:40:12.762Z,35.30
2018-05-15T16:42:40.836Z,35.20
2018-05-15T16:45:08.948Z,35.20
2018-05-15T16:47:37.048Z,35.10
2018-05-15T16:50:05.162Z,35.00
2018-05-15T16:52:33.256Z,34.90
2018-05-15T16:55:02.146Z,34.70
2018-05-15T16:57:31.042Z,34.60
2018-05-15T16:59:59.156Z,34.60
2018-05-15T17:02:27.272Z,34.50
2018-05-15T17:04:55.361Z,34.40
2018-05-15T17:07:23.459Z,34.30
2018-05-15T17:09:51.556Z,34.20
2018-05-15T17:12:19.665Z,34.10
2018-05-15T17:14:47.801Z,34.10
2018-05-15T17:17:15.952Z,34.00
2018-05-15T17:19:44.083Z,34.00
2018-05-15T17:22:12.294Z,33.90
2018-05-15T17:24:40.400Z,33.80
2018-05-15T17:27:09.225Z,33.70
2018-05-15T17:29:37.335Z,33.60
2018-05-15T17:32:05.463Z,33.50
2018-05-15T17:34:33.573Z,33.40
2018-05-15T17:37:01.709Z,33.30
2018-05-15T17:39:29.830Z,33.20
2018-05-15T17:41:58.031Z,33.10
2018-05-15T17:44:26.203Z,33.00
2018-05-15T17:46:54.306Z,32.90
2018-05-15T17:49:23.196Z,32.70
2018-05-15T17:51:52.064Z,32.60
2018-05-15T17:54:20.227Z,32.60
2018-05-15T17:56:48.349Z,32.50
2018-05-15T17:59:16.496Z,32.50
2018-05-15T18:01:44.574Z,32.40
2018-05-15T18:04:12.689Z,32.30
2018-05-15T18:06:40.800Z,32.20
2018-05-15T18:09:08.885Z,32.10
2018-05-15T18:11:36.995Z,32.00
2018-05-15T18:14:06.101Z,31.90
2018-05-15T18:16:34.989Z,31.70
2018-05-15T18:19:03.109Z,31.70
2018-05-15T18:21:31.223Z,31.70
2018-05-15T18:23:59.317Z,31.60
2018-05-15T18:26:27.417Z,31.40
2018-05-15T18:28:56.263Z,31.30
2018-05-15T18:31:24.427Z,31.20
2018-05-15T18:33:52.529Z,31.10
2018-05-15T18:36:20.683Z,31.00
2018-05-15T18:38:48.798Z,30.90
2018-05-15T18:41:16.900Z,30.80
2018-05-15T18:43:45.390Z,30.70
2018-05-15T18:46:13.760Z,30.60
2018-05-15T18:48:42.658Z,30.30
2018-05-15T18:51:11.528Z,30.20
2018-05-15T18:53:39.639Z,30.20
2018-05-15T18:56:07.757Z,30.10
2018-05-15T18:58:35.859Z,30.00
2018-05-15T19:01:04.825Z,29.90
2018-05-15T19:03:32.975Z,29.80
2018-05-15T19:06:01.130Z,29.60
2018-05-15T19:08:30.720Z,29.40
2018-05-15T19:10:58.831Z,29.40
2018-05-15T19:13:26.958Z,29.30
2018-05-15T19:15:55.055Z,29.20
2018-05-15T19:18:23.171Z,29.10
2018-05-15T19:20:51.285Z,28.90
2018-05-15T19:23:19.397Z,28.80
2018-05-15T19:25:47.484Z,28.70
2018-05-15T19:28:15.674Z,28.60
2018-05-15T19:30:43.811Z,28.50
2018-05-15T19:33:16.890Z,28.40
2018-05-15T19:35:44.918Z,28.20
2018-05-15T19:38:13.769Z,28.00
2018-05-15T19:40:41.924Z,28.00
2018-05-15T19:43:10.042Z,28.00
2018-05-15T19:45:38.934Z,27.70
2018-05-15T19:48:07.037Z,27.60
2018-05-15T19:50:35.144Z,27.50
2018-05-15T19:53:03.269Z,27.40
2018-05-15T19:55:32.161Z,27.20
2018-05-15T19:58:01.049Z,27.10
2018-05-15T20:00:30.238Z,27.00
2018-05-15T20:02:58.339Z,27.00
2018-05-15T20:05:27.235Z,26.80
2018-05-15T20:07:55.353Z,26.70
2018-05-15T20:10:23.550Z,26.70
2018-05-15T20:12:51.581Z,26.60
2018-05-15T20:15:19.685Z,26.50
2018-05-15T20:17:47.788Z,26.40
2018-05-15T20:20:15.893Z,26.30
2018-05-15T20:22:43.992Z,26.20
2018-05-15T20:25:12.125Z,26.10
2018-05-15T20:27:40.223Z,26.00
2018-05-15T20:30:09.093Z,25.80
2018-05-15T20:32:37.857Z,25.80
2018-05-15T20:35:06.087Z,25.70
2018-05-15T20:37:34.836Z,25.50
2018-05-15T20:40:02.953Z,25.50
2018-05-15T20:42:31.821Z,25.40
2018-05-15T20:44:59.956Z,25.40
2018-05-15T20:47:28.052Z,25.30
2018-05-15T20:49:56.163Z,25.20
2018-05-15T20:52:24.270Z,25.10
2018-05-15T20:54:52.385Z,25.10
2018-05-15T20:57:20.525Z,25.00
2018-05-15T20:59:48.632Z,24.90
2018-05-15T21:02:16.738Z,24.80
2018-05-15T21:04:44.844Z,24.70
2018-05-15T21:07:12.955Z,24.70
2018-05-15T21:09:41.071Z,24.60
2018-05-15T21:12:09.185Z,24.50
2018-05-15T21:14:37.296Z,24.40
2018-05-15T21:17:05.392Z,24.40
2018-05-15T21:19:33.515Z,24.30
2018-05-15T21:22:01.621Z,24.20
2018-05-15T21:24:29.722Z,24.10
2018-05-15T21:26:57.822Z,24.10
2018-05-15T21:29:26.709Z,24.00
2018-05-15T21:31:54.812Z,23.90
2018-05-15T21:34:22.925Z,23.90
2018-05-15T21:36:51.865Z,23.80
2018-05-15T21:39:19.947Z,23.70
2018-05-15T21:41:48.835Z,23.60
2018-05-15T21:44:17.043Z,23.60
2018-05-15T21:46:45.170Z,23.60
2018-05-15T21:49:13.276Z,23.60
2018-05-15T21:51:41.409Z,23.50
2018-05-15T21:54:09.552Z,23.50
2018-05-15T21:56:37.682Z,23.40
2018-05-15T21:59:05.794Z,23.30
2018-05-15T22:01:33.923Z,23.30
2018-05-15T22:04:02.069Z,23.30
2018-05-15T22:06:30.177Z,23.20
2018-05-15T22:08:58.305Z,23.20
2018-05-15T22:11:25.924Z,23.10
2018-05-15T22:14:05.838Z,23.10
2018-05-15T22:16:45.771Z,23.00
2018-05-15T22:19:25.632Z,23.00
2018-05-15T22:22:06.259Z,22.90
2018-05-15T22:24:34.409Z,22.90
2018-05-15T22:27:02.520Z,22.80
2018-05-15T22:29:30.633Z,22.70
2018-05-15T22:31:58.743Z,22.70
2018-05-15T22:34:26.863Z,22.60
2018-05-15T22:36:55.040Z,22.60
2018-05-15T22:39:23.196Z,22.50
2018-05-15T22:41:51.284Z,22.40
2018-05-15T22:44:19.398Z,22.40
2018-05-15T22:46:47.508Z,22.30
2018-05-15T22:49:15.627Z,22.30
2018-05-15T22:51:43.735Z,22.20
2018-05-15T22:54:11.843Z,22.20
2018-05-15T22:56:39.981Z,22.10
2018-05-15T22:59:08.077Z,22.00
2018-05-15T23:01:36.208Z,22.00
2018-05-15T23:04:04.346Z,21.90
2018-05-15T23:06:32.482Z,21.90
2018-05-15T23:09:01.312Z,21.80
2018-05-15T23:11:29.413Z,21.80
2018-05-15T23:13:58.288Z,21.70
2018-05-15T23:16:26.404Z,21.70
2018-05-15T23:18:54.532Z,21.70
2018-05-15T23:21:22.660Z,21.60
2018-05-15T23:23:50.787Z,21.60
2018-05-15T23:26:18.893Z,21.60
2018-05-15T23:28:47.755Z,21.50
2018-05-15T23:31:15.867Z,21.50
2018-05-15T23:33:44.004Z,21.50
2018-05-15T23:36:12.111Z,21.50
2018-05-15T23:38:40.224Z,21.40
2018-05-15T23:41:08.347Z,21.40
2018-05-15T23:43:36.440Z,21.40
2018-05-15T23:46:05.320Z,21.30
2018-05-15T23:48:33.413Z,21.30
2018-05-15T23:51:02.286Z,21.30
2018-05-15T23:53:30.387Z,21.30
2018-05-15T23:55:59.260Z,21.30
2018-05-15T23:58:27.377Z,21.20
